sensor_id;sensor_type;location;lat;lon;timestamp;pressure;altitude;pressure_sealevel;temperature;humidity
43553;BME280;29153;42.696;23.218;2022-09-12T00:00:21;94325.66;;;13.97;100.00
43553;BME280;29153;42.696;23.218;2022-09-12T00:02:53;94314.92;;;13.89;100.00
43553;BME280;29153;42.696;23.218;2022-09-12T00:05:21;94317.23;;;13.93;100.00
43553;BME280;29153;42.696;23.218;2022-09-12T00:07:49;94316.00;;;13.88;100.00
43553;BME280;29153;42.696;23.218;2022-09-12T00:10:17;94324.53;;;13.87;100.00
43553;BME280;29153;42.696;23.218;2022-09-12T00:12:45;94319.56;;;13.69;100.00
43553;BME280;29153;42.696;23.218;2022-09-12T00:15:12;94326.79;;;13.69;100.00
43553;BME280;29153;42.696;23.218;2022-09-12T00:17:40;94328.41;;;13.67;100.00
43553;BME280;29153;42.696;23.218;2022-09-12T00:20:08;94326.79;;;13.55;100.00
43553;BME280;29153;42.696;23.218;2022-09-12T00:22:36;94326.79;;;13.55;100.00
43553;BME280;29153;42.696;23.218;2022-09-12T00:25:04;94329.58;;;13.61;100.00
43553;BME280;29153;42.696;23.218;2022-09-12T00:27:32;94327.23;;;13.60;100.00
43553;BME280;29153;42.696;23.218;2022-09-12T00:30:00;94328.13;;;13.55;100.00
43553;BME280;29153;42.696;23.218;2022-09-12T00:32:27;94328.13;;;13.55;100.00
43553;BME280;29153;42.696;23.218;2022-09-12T00:34:55;94333.03;;;13.48;100.00
43553;BME280;29153;42.696;23.218;2022-09-12T00:37:22;94328.69;;;13.52;100.00
43553;BME280;29153;42.696;23.218;2022-09-12T00:39:50;94325.58;;;13.48;100.00
43553;BME280;29153;42.696;23.218;2022-09-12T00:42:18;94325.05;;;13.48;100.00
43553;BME280;29153;42.696;23.218;2022-09-12T00:44:48;94325.05;;;13.48;100.00
43553;BME280;29153;42.696;23.218;2022-09-12T00:47:28;94334.03;;;13.39;100.00
43553;BME280;29153;42.696;23.218;2022-09-12T00:50:04;94331.27;;;13.30;100.00
43553;BME280;29153;42.696;23.218;2022-09-12T00:52:38;94330.03;;;13.25;100.00
43553;BME280;29153;42.696;23.218;2022-09-12T00:55:10;94322.39;;;13.21;100.00
43553;BME280;29153;42.696;23.218;2022-09-12T00:57:51;94317.95;;;13.16;100.00
43553;BME280;29153;42.696;23.218;2022-09-12T01:00:20;94320.72;;;13.09;100.00
43553;BME280;29153;42.696;23.218;2022-09-12T01:02:52;94312.77;;;13.06;100.00
43553;BME280;29153;42.696;23.218;2022-09-12T01:05:20;94321.97;;;12.98;100.00
43553;BME280;29153;42.696;23.218;2022-09-12T01:07:48;94321.97;;;12.98;100.00
43553;BME280;29153;42.696;23.218;2022-09-12T01:10:17;94320.98;;;12.94;100.00
43553;BME280;29153;42.696;23.218;2022-09-12T01:12:46;94319.78;;;12.86;100.00
43553;BME280;29153;42.696;23.218;2022-09-12T01:15:14;94326.30;;;12.94;100.00
43553;BME280;29153;42.696;23.218;2022-09-12T01:23:44;94312.11;;;12.68;100.00
43553;BME280;29153;42.696;23.218;2022-09-12T01:32:14;94320.97;;;12.45;100.00
43553;BME280;29153;42.696;23.218;2022-09-12T01:38:04;94317.64;;;12.37;100.00
43553;BME280;29153;42.696;23.218;2022-09-12T01:43:18;94319.00;;;12.18;100.00
43553;BME280;29153;42.696;23.218;2022-09-12T01:45:53;94315.02;;;12.00;100.00
43553;BME280;29153;42.696;23.218;2022-09-12T01:48:26;94312.41;;;11.97;100.00
43553;BME280;29153;42.696;23.218;2022-09-12T01:51:03;94308.77;;;11.91;100.00
43553;BME280;29153;42.696;23.218;2022-09-12T01:53:51;94307.05;;;12.00;100.00
43553;BME280;29153;42.696;23.218;2022-09-12T01:56:27;94302.06;;;11.96;100.00
43553;BME280;29153;42.696;23.218;2022-09-12T02:01:55;94304.77;;;11.93;100.00
43553;BME280;29153;42.696;23.218;2022-09-12T02:04:31;94307.48;;;11.88;100.00
43553;BME280;29153;42.696;23.218;2022-09-12T02:07:43;94306.48;;;11.84;100.00
43553;BME280;29153;42.696;23.218;2022-09-12T02:09:38;94312.38;;;11.78;100.00
43553;BME280;29153;42.696;23.218;2022-09-12T02:12:03;94304.73;;;11.74;100.00
43553;BME280;29153;42.696;23.218;2022-09-12T02:14:35;94312.70;;;11.74;100.00
43553;BME280;29153;42.696;23.218;2022-09-12T02:17:10;94312.73;;;11.69;100.00
43553;BME280;29153;42.696;23.218;2022-09-12T02:19:44;94238.88;;;11.15;100.00
43553;BME280;29153;42.696;23.218;2022-09-12T02:22:14;94307.09;;;11.55;100.00
43553;BME280;29153;42.696;23.218;2022-09-12T02:24:44;94305.92;;;11.63;100.00
43553;BME280;29153;42.696;23.218;2022-09-12T02:27:23;94311.03;;;11.57;100.00
43553;BME280;29153;42.696;23.218;2022-09-12T02:29:51;94310.72;;;11.61;100.00
43553;BME280;29153;42.696;23.218;2022-09-12T02:32:37;94314.26;;;11.54;100.00
43553;BME280;29153;42.696;23.218;2022-09-12T02:37:59;94304.02;;;11.45;100.00
43553;BME280;29153;42.696;23.218;2022-09-12T02:40:26;94301.42;;;11.40;100.00
43553;BME280;29153;42.696;23.218;2022-09-12T02:42:54;94299.34;;;11.37;100.00
43553;BME280;29153;42.696;23.218;2022-09-12T02:45:22;94299.34;;;11.37;100.00
43553;BME280;29153;42.696;23.218;2022-09-12T02:48:11;94299.14;;;11.31;100.00
43553;BME280;29153;42.696;23.218;2022-09-12T02:50:57;94307.73;;;11.44;100.00
43553;BME280;29153;42.696;23.218;2022-09-12T02:53:25;94313.88;;;11.42;100.00
43553;BME280;29153;42.696;23.218;2022-09-12T02:55:53;94309.06;;;11.44;100.00
43553;BME280;29153;42.696;23.218;2022-09-12T02:58:23;94308.78;;;11.22;100.00
43553;BME280;29153;42.696;23.218;2022-09-12T03:01:12;94310.63;;;11.24;100.00
43553;BME280;29153;42.696;23.218;2022-09-12T03:03:34;94314.87;;;11.25;100.00
43553;BME280;29153;42.696;23.218;2022-09-12T03:06:15;94315.63;;;11.25;100.00
43553;BME280;29153;42.696;23.218;2022-09-12T03:12:03;94326.85;;;11.20;100.00
43553;BME280;29153;42.696;23.218;2022-09-12T03:15:11;94326.41;;;11.10;100.00
43553;BME280;29153;42.696;23.218;2022-09-12T03:20:00;94327.83;;;11.03;100.00
43553;BME280;29153;42.696;23.218;2022-09-12T03:22:33;94324.16;;;10.96;100.00
43553;BME280;29153;42.696;23.218;2022-09-12T03:25:29;94318.28;;;11.02;100.00
43553;BME280;29153;42.696;23.218;2022-09-12T03:28:08;94327.59;;;10.99;100.00
43553;BME280;29153;42.696;23.218;2022-09-12T03:30:40;94328.14;;;10.96;100.00
43553;BME280;29153;42.696;23.218;2022-09-12T03:33:14;94327.72;;;10.86;100.00
43553;BME280;29153;42.696;23.218;2022-09-12T03:35:44;94321.86;;;10.87;100.00
43553;BME280;29153;42.696;23.218;2022-09-12T03:38:12;94321.02;;;10.91;100.00
43553;BME280;29153;42.696;23.218;2022-09-12T03:40:39;94316.82;;;10.90;100.00
43553;BME280;29153;42.696;23.218;2022-09-12T03:43:08;94319.20;;;10.89;100.00
43553;BME280;29153;42.696;23.218;2022-09-12T03:45:36;94316.21;;;10.96;100.00
43553;BME280;29153;42.696;23.218;2022-09-12T03:48:04;94316.25;;;10.93;100.00
43553;BME280;29153;42.696;23.218;2022-09-12T03:50:32;94319.16;;;10.94;100.00
43553;BME280;29153;42.696;23.218;2022-09-12T03:53:01;94320.98;;;10.96;100.00
43553;BME280;29153;42.696;23.218;2022-09-12T03:55:29;94320.18;;;10.99;100.00
43553;BME280;29153;42.696;23.218;2022-09-12T03:57:56;94322.96;;;10.83;100.00
43553;BME280;29153;42.696;23.218;2022-09-12T04:00:24;94320.53;;;10.89;100.00
43553;BME280;29153;42.696;23.218;2022-09-12T04:02:56;94320.84;;;10.85;100.00
43553;BME280;29153;42.696;23.218;2022-09-12T04:05:24;94319.78;;;10.84;100.00
43553;BME280;29153;42.696;23.218;2022-09-12T04:07:53;94323.26;;;10.82;100.00
43553;BME280;29153;42.696;23.218;2022-09-12T04:10:20;94323.00;;;10.78;100.00
43553;BME280;29153;42.696;23.218;2022-09-12T04:12:48;94323.03;;;10.76;100.00
43553;BME280;29153;42.696;23.218;2022-09-12T04:15:15;94324.85;;;10.80;100.00
43553;BME280;29153;42.696;23.218;2022-09-12T04:17:43;94327.28;;;10.74;100.00
43553;BME280;29153;42.696;23.218;2022-09-12T04:20:10;94333.37;;;10.77;100.00
43553;BME280;29153;42.696;23.218;2022-09-12T04:22:38;94335.23;;;10.74;100.00
43553;BME280;29153;42.696;23.218;2022-09-12T04:25:06;94335.75;;;10.76;100.00
43553;BME280;29153;42.696;23.218;2022-09-12T04:27:34;94332.88;;;10.73;100.00
43553;BME280;29153;42.696;23.218;2022-09-12T04:30:03;94336.05;;;10.72;100.00
43553;BME280;29153;42.696;23.218;2022-09-12T04:32:31;94340.78;;;10.75;100.00
43553;BME280;29153;42.696;23.218;2022-09-12T04:34:58;94340.45;;;10.84;100.00
43553;BME280;29153;42.696;23.218;2022-09-12T04:37:26;94344.46;;;10.79;100.00
43553;BME280;29153;42.696;23.218;2022-09-12T04:39:53;94344.39;;;10.87;100.00
43553;BME280;29153;42.696;23.218;2022-09-12T04:42:23;94342.03;;;10.85;100.00
43553;BME280;29153;42.696;23.218;2022-09-12T04:44:51;94351.80;;;10.90;100.00
43553;BME280;29153;42.696;23.218;2022-09-12T04:47:18;94344.08;;;10.93;100.00
43553;BME280;29153;42.696;23.218;2022-09-12T04:49:48;94351.19;;;10.98;100.00
43553;BME280;29153;42.696;23.218;2022-09-12T04:52:16;94352.25;;;10.97;100.00
43553;BME280;29153;42.696;23.218;2022-09-12T04:54:44;94349.03;;;11.03;100.00
43553;BME280;29153;42.696;23.218;2022-09-12T04:57:11;94346.34;;;11.05;100.00
43553;BME280;29153;42.696;23.218;2022-09-12T04:59:39;94349.09;;;11.21;100.00
43553;BME280;29153;42.696;23.218;2022-09-12T05:02:06;94354.03;;;11.30;100.00
43553;BME280;29153;42.696;23.218;2022-09-12T05:04:34;94361.89;;;11.40;100.00
43553;BME280;29153;42.696;23.218;2022-09-12T05:07:02;94352.03;;;11.43;100.00
43553;BME280;29153;42.696;23.218;2022-09-12T05:09:29;94357.55;;;11.50;100.00
43553;BME280;29153;42.696;23.218;2022-09-12T05:11:57;94356.92;;;11.58;100.00
43553;BME280;29153;42.696;23.218;2022-09-12T05:14:24;94359.42;;;11.70;100.00
43553;BME280;29153;42.696;23.218;2022-09-12T05:16:52;94355.68;;;11.76;100.00
43553;BME280;29153;42.696;23.218;2022-09-12T05:19:21;94365.57;;;11.90;100.00
43553;BME280;29153;42.696;23.218;2022-09-12T05:21:49;94359.87;;;12.01;100.00
43553;BME280;29153;42.696;23.218;2022-09-12T05:24:16;94356.03;;;12.10;100.00
43553;BME280;29153;42.696;23.218;2022-09-12T05:26:44;94356.66;;;12.23;100.00
43553;BME280;29153;42.696;23.218;2022-09-12T05:29:11;94352.81;;;12.31;100.00
43553;BME280;29153;42.696;23.218;2022-09-12T05:31:39;94350.84;;;12.37;100.00
43553;BME280;29153;42.696;23.218;2022-09-12T05:34:07;94357.77;;;12.54;100.00
43553;BME280;29153;42.696;23.218;2022-09-12T05:36:35;94349.23;;;12.57;100.00
43553;BME280;29153;42.696;23.218;2022-09-12T05:39:03;94355.03;;;12.75;100.00
43553;BME280;29153;42.696;23.218;2022-09-12T05:41:30;94348.61;;;12.95;100.00
43553;BME280;29153;42.696;23.218;2022-09-12T05:44:01;94348.00;;;13.17;100.00
43553;BME280;29153;42.696;23.218;2022-09-12T05:46:34;94345.39;;;13.28;100.00
43553;BME280;29153;42.696;23.218;2022-09-12T05:49:02;94352.15;;;13.37;100.00
43553;BME280;29153;42.696;23.218;2022-09-12T05:51:32;94345.26;;;13.49;100.00
43553;BME280;29153;42.696;23.218;2022-09-12T05:54:02;94340.55;;;13.60;100.00
43553;BME280;29153;42.696;23.218;2022-09-12T05:56:31;94332.48;;;13.76;100.00
43553;BME280;29153;42.696;23.218;2022-09-12T05:59:08;94332.16;;;13.91;100.00
43553;BME280;29153;42.696;23.218;2022-09-12T06:01:36;94333.13;;;14.09;100.00
43553;BME280;29153;42.696;23.218;2022-09-12T06:04:04;94322.91;;;14.38;100.00
43553;BME280;29153;42.696;23.218;2022-09-12T06:06:37;94331.35;;;14.54;99.84
43553;BME280;29153;42.696;23.218;2022-09-12T06:09:07;94327.70;;;14.72;98.64
43553;BME280;29153;42.696;23.218;2022-09-12T06:11:37;94332.02;;;14.71;97.93
43553;BME280;29153;42.696;23.218;2022-09-12T06:14:06;94321.72;;;14.67;95.70
43553;BME280;29153;42.696;23.218;2022-09-12T06:16:35;94327.34;;;14.65;94.96
43553;BME280;29153;42.696;23.218;2022-09-12T06:19:12;94329.16;;;14.78;94.95
43553;BME280;29153;42.696;23.218;2022-09-12T06:21:36;94338.80;;;14.88;95.63
43553;BME280;29153;42.696;23.218;2022-09-12T06:24:05;94329.88;;;14.81;95.64
43553;BME280;29153;42.696;23.218;2022-09-12T06:26:33;94338.44;;;14.92;94.10
43553;BME280;29153;42.696;23.218;2022-09-12T06:29:01;94338.44;;;14.92;94.10
43553;BME280;29153;42.696;23.218;2022-09-12T06:31:32;94339.13;;;15.06;95.13
43553;BME280;29153;42.696;23.218;2022-09-12T06:34:03;94335.08;;;15.09;93.81
43553;BME280;29153;42.696;23.218;2022-09-12T06:36:33;94352.59;;;15.12;94.61
43553;BME280;29153;42.696;23.218;2022-09-12T06:39:07;94353.11;;;15.65;94.11
43553;BME280;29153;42.696;23.218;2022-09-12T06:41:35;94353.11;;;15.65;94.11
43553;BME280;29153;42.696;23.218;2022-09-12T06:44:03;94353.44;;;15.72;89.50
43553;BME280;29153;42.696;23.218;2022-09-12T06:46:32;94359.38;;;15.60;88.50
43553;BME280;29153;42.696;23.218;2022-09-12T06:49:00;94354.20;;;15.64;89.82
43553;BME280;29153;42.696;23.218;2022-09-12T06:51:28;94354.20;;;15.64;89.82
43553;BME280;29153;42.696;23.218;2022-09-12T06:53:56;94366.09;;;15.69;88.78
43553;BME280;29153;42.696;23.218;2022-09-12T06:56:26;94365.30;;;15.68;90.10
43553;BME280;29153;42.696;23.218;2022-09-12T06:58:55;94363.09;;;15.70;88.79
43553;BME280;29153;42.696;23.218;2022-09-12T07:01:26;94366.36;;;15.78;89.18
43553;BME280;29153;42.696;23.218;2022-09-12T07:03:56;94369.00;;;15.98;87.20
43553;BME280;29153;42.696;23.218;2022-09-12T07:06:33;94372.17;;;16.00;84.45
43553;BME280;29153;42.696;23.218;2022-09-12T07:09:00;94378.84;;;16.00;83.65
43553;BME280;29153;42.696;23.218;2022-09-12T07:11:30;94362.70;;;15.94;84.63
43553;BME280;29153;42.696;23.218;2022-09-12T07:14:00;94371.35;;;15.91;83.22
43553;BME280;29153;42.696;23.218;2022-09-12T07:16:28;94369.63;;;15.95;84.00
43553;BME280;29153;42.696;23.218;2022-09-12T07:18:59;94374.94;;;16.15;82.57
43553;BME280;29153;42.696;23.218;2022-09-12T07:21:27;94375.61;;;16.37;83.22
43553;BME280;29153;42.696;23.218;2022-09-12T07:23:56;94386.39;;;16.52;81.98
43553;BME280;29153;42.696;23.218;2022-09-12T07:26:28;94373.30;;;16.79;81.25
43553;BME280;29153;42.696;23.218;2022-09-12T07:28:57;94387.70;;;16.89;79.11
43553;BME280;29153;42.696;23.218;2022-09-12T07:31:26;94388.00;;;16.96;80.71
43553;BME280;29153;42.696;23.218;2022-09-12T07:33:54;94385.44;;;17.25;79.64
43553;BME280;29153;42.696;23.218;2022-09-12T07:36:23;94395.34;;;17.34;77.11
43553;BME280;29153;42.696;23.218;2022-09-12T07:38:55;94395.39;;;17.48;75.50
43553;BME280;29153;42.696;23.218;2022-09-12T07:41:25;94389.34;;;17.77;72.03
43553;BME280;29153;42.696;23.218;2022-09-12T07:43:54;94379.62;;;18.16;70.83
43553;BME280;29153;42.696;23.218;2022-09-12T07:46:23;94386.03;;;18.68;73.49
43553;BME280;29153;42.696;23.218;2022-09-12T07:48:52;94380.91;;;18.75;66.75
43553;BME280;29153;42.696;23.218;2022-09-12T07:51:20;94378.17;;;19.10;70.57
43553;BME280;29153;42.696;23.218;2022-09-12T07:53:48;94386.27;;;19.23;69.10
43553;BME280;29153;42.696;23.218;2022-09-12T07:56:17;94388.14;;;19.43;67.06
43553;BME280;29153;42.696;23.218;2022-09-12T07:58:47;94393.38;;;19.72;65.89
43553;BME280;29153;42.696;23.218;2022-09-12T08:01:17;94389.24;;;19.87;67.21
43553;BME280;29153;42.696;23.218;2022-09-12T08:03:47;94384.72;;;19.54;67.47
43553;BME280;29153;42.696;23.218;2022-09-12T08:06:18;94385.08;;;19.77;66.50
43553;BME280;29153;42.696;23.218;2022-09-12T08:08:46;94386.47;;;20.02;64.76
43553;BME280;29153;42.696;23.218;2022-09-12T08:11:16;94385.81;;;20.35;67.61
43553;BME280;29153;42.696;23.218;2022-09-12T08:13:44;94386.91;;;20.52;61.98
43553;BME280;29153;42.696;23.218;2022-09-12T08:16:14;94384.82;;;20.79;61.95
43553;BME280;29153;42.696;23.218;2022-09-12T08:18:44;94387.09;;;21.11;62.37
43553;BME280;29153;42.696;23.218;2022-09-12T08:21:21;94390.25;;;21.07;62.50
43553;BME280;29153;42.696;23.218;2022-09-12T08:23:45;94389.34;;;20.63;59.70
43553;BME280;29153;42.696;23.218;2022-09-12T08:26:14;94388.00;;;20.69;62.00
43553;BME280;29153;42.696;23.218;2022-09-12T08:28:43;94387.37;;;20.48;62.28
43553;BME280;29153;42.696;23.218;2022-09-12T08:31:14;94388.03;;;20.09;61.54
43553;BME280;29153;42.696;23.218;2022-09-12T08:33:42;94392.05;;;20.21;66.04
43553;BME280;29153;42.696;23.218;2022-09-12T08:36:14;94386.91;;;20.10;62.58
43553;BME280;29153;42.696;23.218;2022-09-12T08:38:44;94391.61;;;20.25;62.96
43553;BME280;29153;42.696;23.218;2022-09-12T08:41:24;94376.23;;;19.77;61.78
43553;BME280;29153;42.696;23.218;2022-09-12T08:49:14;94380.23;;;19.52;62.71
43553;BME280;29153;42.696;23.218;2022-09-12T08:51:42;94372.39;;;19.53;65.92
43553;BME280;29153;42.696;23.218;2022-09-12T08:54:16;94368.08;;;20.04;62.19
43553;BME280;29153;42.696;23.218;2022-09-12T08:56:38;94373.47;;;20.10;62.51
43553;BME280;29153;42.696;23.218;2022-09-12T08:59:07;94377.25;;;19.78;64.46
43553;BME280;29153;42.696;23.218;2022-09-12T09:01:39;94376.36;;;19.98;63.19
43553;BME280;29153;42.696;23.218;2022-09-12T09:04:42;94369.42;;;20.04;64.13
43553;BME280;29153;42.696;23.218;2022-09-12T09:07:40;94376.59;;;20.12;63.02
43553;BME280;29153;42.696;23.218;2022-09-12T09:13:30;94370.70;;;19.49;63.65
43553;BME280;29153;42.696;23.218;2022-09-12T09:16:35;94369.16;;;19.27;67.95
43553;BME280;29153;42.696;23.218;2022-09-12T09:22:05;94369.28;;;19.25;65.53
43553;BME280;29153;42.696;23.218;2022-09-12T09:24:42;94367.28;;;19.79;67.92
43553;BME280;29153;42.696;23.218;2022-09-12T09:29:53;94364.26;;;19.98;61.36
43553;BME280;29153;42.696;23.218;2022-09-12T09:32:35;94358.78;;;20.43;62.04
43553;BME280;29153;42.696;23.218;2022-09-12T09:35:01;94351.89;;;20.64;62.45
43553;BME280;29153;42.696;23.218;2022-09-12T09:37:52;94352.58;;;20.55;61.62
43553;BME280;29153;42.696;23.218;2022-09-12T09:43:10;94359.31;;;20.61;61.44
43553;BME280;29153;42.696;23.218;2022-09-12T09:45:36;94353.83;;;20.58;62.21
43553;BME280;29153;42.696;23.218;2022-09-12T09:48:18;94352.61;;;20.13;61.40
43553;BME280;29153;42.696;23.218;2022-09-12T09:50:49;94353.64;;;20.02;62.01
43553;BME280;29153;42.696;23.218;2022-09-12T09:55:56;94357.97;;;20.55;63.53
43553;BME280;29153;42.696;23.218;2022-09-12T09:58:33;94348.64;;;20.99;62.24
43553;BME280;29153;42.696;23.218;2022-09-12T10:01:15;94350.92;;;20.90;59.72
43553;BME280;29153;42.696;23.218;2022-09-12T10:03:39;94353.48;;;20.29;58.69
43553;BME280;29153;42.696;23.218;2022-09-12T10:06:30;94353.05;;;20.21;62.41
43553;BME280;29153;42.696;23.218;2022-09-12T10:09:17;94345.87;;;20.25;57.87
43553;BME280;29153;42.696;23.218;2022-09-12T10:11:36;94349.92;;;20.37;58.64
43553;BME280;29153;42.696;23.218;2022-09-12T10:14:04;94346.34;;;20.39;61.43
43553;BME280;29153;42.696;23.218;2022-09-12T10:16:34;94344.77;;;20.14;62.65
43553;BME280;29153;42.696;23.218;2022-09-12T10:19:03;94339.61;;;20.03;62.96
43553;BME280;29153;42.696;23.218;2022-09-12T10:21:38;94338.14;;;20.11;61.35
43553;BME280;29153;42.696;23.218;2022-09-12T10:24:21;94337.13;;;20.52;64.09
43553;BME280;29153;42.696;23.218;2022-09-12T10:32:35;94340.70;;;20.56;63.42
43553;BME280;29153;42.696;23.218;2022-09-12T10:35:27;94335.34;;;20.38;59.67
43553;BME280;29153;42.696;23.218;2022-09-12T10:37:38;94329.24;;;20.65;59.51
43553;BME280;29153;42.696;23.218;2022-09-12T10:40:19;94334.30;;;20.95;57.41
43553;BME280;29153;42.696;23.218;2022-09-12T10:42:54;94334.34;;;20.82;56.17
43553;BME280;29153;42.696;23.218;2022-09-12T10:45:34;94337.32;;;20.59;54.52
43553;BME280;29153;42.696;23.218;2022-09-12T10:48:20;94332.23;;;20.06;56.84
43553;BME280;29153;42.696;23.218;2022-09-12T10:50:41;94332.67;;;19.71;60.95
43553;BME280;29153;42.696;23.218;2022-09-12T10:53:24;94325.95;;;19.95;60.11
43553;BME280;29153;42.696;23.218;2022-09-12T10:56:01;94322.34;;;20.22;58.72
43553;BME280;29153;42.696;23.218;2022-09-12T10:58:42;94328.45;;;20.59;59.39
43553;BME280;29153;42.696;23.218;2022-09-12T11:18:18;94312.94;;;20.28;58.06
43553;BME280;29153;42.696;23.218;2022-09-12T11:29:34;94335.28;;;20.74;57.81
43553;BME280;29153;42.696;23.218;2022-09-12T11:35:18;94330.89;;;20.36;59.09
43553;BME280;29153;42.696;23.218;2022-09-12T11:40:39;94338.39;;;20.30;62.93
43553;BME280;29153;42.696;23.218;2022-09-12T11:43:31;94334.69;;;20.23;58.95
43553;BME280;29153;42.696;23.218;2022-09-12T11:55:16;94327.93;;;20.29;60.46
43553;BME280;29153;42.696;23.218;2022-09-12T11:57:14;94326.16;;;20.27;61.26
43553;BME280;29153;42.696;23.218;2022-09-12T12:00:01;94326.16;;;20.45;59.44
43553;BME280;29153;42.696;23.218;2022-09-12T12:02:29;94326.03;;;20.54;61.61
43553;BME280;29153;42.696;23.218;2022-09-12T12:07:38;94320.00;;;20.08;59.45
43553;BME280;29153;42.696;23.218;2022-09-12T12:10:02;94320.77;;;20.21;58.73
43553;BME280;29153;42.696;23.218;2022-09-12T12:12:31;94312.73;;;20.15;58.38
43553;BME280;29153;42.696;23.218;2022-09-12T12:14:59;94319.66;;;20.22;58.50
43553;BME280;29153;42.696;23.218;2022-09-12T12:17:28;94314.86;;;20.09;59.17
43553;BME280;29153;42.696;23.218;2022-09-12T12:20:03;94317.11;;;19.71;57.48
43553;BME280;29153;42.696;23.218;2022-09-12T12:22:31;94316.25;;;19.40;58.78
43553;BME280;29153;42.696;23.218;2022-09-12T12:25:15;94315.81;;;19.38;62.16
43553;BME280;29153;42.696;23.218;2022-09-12T12:27:50;94308.50;;;19.20;60.37
43553;BME280;29153;42.696;23.218;2022-09-12T12:35:43;94293.05;;;18.84;60.56
43553;BME280;29153;42.696;23.218;2022-09-12T12:38:27;94298.69;;;18.97;62.45
43553;BME280;29153;42.696;23.218;2022-09-12T12:43:42;94298.06;;;19.70;60.87
43553;BME280;29153;42.696;23.218;2022-09-12T12:46:17;94301.99;;;19.84;60.71
43553;BME280;29153;42.696;23.218;2022-09-12T12:49:30;94303.76;;;19.56;58.87
43553;BME280;29153;42.696;23.218;2022-09-12T12:54:29;94309.42;;;19.36;61.58
43553;BME280;29153;42.696;23.218;2022-09-12T12:57:22;94307.86;;;18.96;62.92
43553;BME280;29153;42.696;23.218;2022-09-12T13:02:26;94312.71;;;18.76;62.75
43553;BME280;29153;42.696;23.218;2022-09-12T13:04:55;94311.61;;;18.77;64.64
43553;BME280;29153;42.696;23.218;2022-09-12T13:07:26;94314.23;;;18.65;65.15
43553;BME280;29153;42.696;23.218;2022-09-12T13:09:54;94317.60;;;18.68;63.09
43553;BME280;29153;42.696;23.218;2022-09-12T13:12:41;94306.67;;;18.73;65.08
43553;BME280;29153;42.696;23.218;2022-09-12T13:16:07;94299.89;;;19.21;67.58
43553;BME280;29153;42.696;23.218;2022-09-12T13:17:45;94318.55;;;19.50;62.35
43553;BME280;29153;42.696;23.218;2022-09-12T13:20:25;94311.38;;;19.60;61.14
43553;BME280;29153;42.696;23.218;2022-09-12T13:22:52;94306.68;;;19.69;60.37
43553;BME280;29153;42.696;23.218;2022-09-12T13:25:34;94304.02;;;19.93;60.82
43553;BME280;29153;42.696;23.218;2022-09-12T13:30:42;94307.59;;;19.67;60.29
43553;BME280;29153;42.696;23.218;2022-09-12T13:33:19;94299.20;;;19.81;62.26
43553;BME280;29153;42.696;23.218;2022-09-12T13:41:39;94298.84;;;19.07;60.52
43553;BME280;29153;42.696;23.218;2022-09-12T13:44:10;94290.78;;;19.13;62.82
43553;BME280;29153;42.696;23.218;2022-09-12T13:46:38;94295.25;;;19.03;58.45
43553;BME280;29153;42.696;23.218;2022-09-12T13:49:16;94305.80;;;18.81;60.15
43553;BME280;29153;42.696;23.218;2022-09-12T13:51:35;94296.88;;;18.42;59.38
43553;BME280;29153;42.696;23.218;2022-09-12T13:54:03;94295.09;;;18.40;60.03
43553;BME280;29153;42.696;23.218;2022-09-12T13:56:31;94299.23;;;18.23;61.13
43553;BME280;29153;42.696;23.218;2022-09-12T13:59:01;94296.20;;;18.03;62.36
43553;BME280;29153;42.696;23.218;2022-09-12T14:01:44;94295.83;;;18.13;63.41
43553;BME280;29153;42.696;23.218;2022-09-12T14:04:20;94293.51;;;18.18;61.46
43553;BME280;29153;42.696;23.218;2022-09-12T14:07:20;94298.53;;;18.19;60.74
43553;BME280;29153;42.696;23.218;2022-09-12T14:09:56;94297.47;;;18.27;61.68
43553;BME280;29153;42.696;23.218;2022-09-12T14:12:37;94297.72;;;18.13;60.85
43553;BME280;29153;42.696;23.218;2022-09-12T14:15:00;94290.73;;;18.06;61.03
43553;BME280;29153;42.696;23.218;2022-09-12T14:20:06;94284.61;;;18.05;62.82
43553;BME280;29153;42.696;23.218;2022-09-12T14:22:29;94289.23;;;17.96;62.70
43553;BME280;29153;42.696;23.218;2022-09-12T14:24:58;94296.02;;;18.08;63.13
43553;BME280;29153;42.696;23.218;2022-09-12T14:27:32;94292.02;;;18.14;62.33
43553;BME280;29153;42.696;23.218;2022-09-12T14:30:18;94235.14;;;17.88;63.86
43553;BME280;29153;42.696;23.218;2022-09-12T14:32:37;94299.12;;;18.04;61.61
43553;BME280;29153;42.696;23.218;2022-09-12T14:35:06;94296.25;;;18.09;63.03
43553;BME280;29153;42.696;23.218;2022-09-12T14:37:34;94289.60;;;18.01;65.59
43553;BME280;29153;42.696;23.218;2022-09-12T14:40:01;94293.25;;;17.96;63.72
43553;BME280;29153;42.696;23.218;2022-09-12T14:42:31;94292.23;;;18.09;64.76
43553;BME280;29153;42.696;23.218;2022-09-12T14:45:02;94288.09;;;18.27;67.09
43553;BME280;29153;42.696;23.218;2022-09-12T14:47:39;94292.78;;;18.30;64.78
43553;BME280;29153;42.696;23.218;2022-09-12T14:50:19;94305.30;;;18.32;62.25
43553;BME280;29153;42.696;23.218;2022-09-12T14:53:01;94301.70;;;18.28;64.29
43553;BME280;29153;42.696;23.218;2022-09-12T14:55:31;94304.31;;;18.15;63.96
43553;BME280;29153;42.696;23.218;2022-09-12T15:00:50;94293.64;;;18.22;62.53
43553;BME280;29153;42.696;23.218;2022-09-12T15:03:27;94303.27;;;17.93;63.92
43553;BME280;29153;42.696;23.218;2022-09-12T15:05:50;94298.80;;;17.91;64.09
43553;BME280;29153;42.696;23.218;2022-09-12T15:08:18;94295.88;;;17.90;64.00
43553;BME280;29153;42.696;23.218;2022-09-12T15:10:46;94300.21;;;17.89;64.96
43553;BME280;29153;42.696;23.218;2022-09-12T15:13:16;94297.53;;;17.89;64.95